Time,TemperatureF,DewpointF,PressureIn,WindDirection,WindDirectionDegrees,WindSpeedMPH,WindSpeedGustMPH,Humidity,HourlyPrecipIn,Conditions,Clouds,dailyrainin,SolarRadiationWatts/m^2,SoftwareType,DateUTC
2018-05-23 00:01:00,68.5,64.5,29.96,ESE,112,5.8,5.8,87,0.00,FEW,,0.00,0.0,WeatherDisplay:10.37,2018-05-23 05:01:00,
2018-05-23 00:06:00,68.4,64.7,29.96,ESE,112,5.8,5.8,88,0.00,FEW,,0.00,0.0,WeatherDisplay:10.37,2018-05-23 05:06:00,
2018-05-23 00:11:00,68.2,64.5,29.96,ESE,112,6.3,6.3,88,0.00,FEW,,0.00,0.0,WeatherDisplay:10.37,2018-05-23 05:11:00,
2018-05-23 00:16:00,68.7,65.0,29.96,SE,135,8.1,8.1,88,0.00,FEW,,0.00,0.0,WeatherDisplay:10.37,2018-05-23 05:16:00,
2018-05-23 00:21:00,68.2,64.5,29.96,ESE,112,7.3,7.3,88,0.00,CLR,,0.00,0.0,WeatherDisplay:10.37,2018-05-23 05:21:00,
2018-05-23 00:26:00,68.4,64.7,29.96,SSE,158,12.7,12.7,88,0.00,CLR,,0.00,0.0,WeatherDisplay:10.37,2018-05-23 05:26:00,
2018-05-23 00:31:00,68.2,64.8,29.96,SE,135,9.2,9.2,89,0.00,CLR,,0.00,0.0,WeatherDisplay:10.37,2018-05-23 05:31:00,
2018-05-23 00:36:00,68.2,64.8,29.96,SSE,158,9.2,9.2,89,0.00,CLR,,0.00,0.0,WeatherDisplay:10.37,2018-05-23 05:36:00,
2018-05-23 00:41:00,68.0,64.6,29.96,South,180,8.3,8.3,89,0.00,CLR,,0.00,0.0,WeatherDisplay:10.37,2018-05-23 05:41:00,
2018-05-23 00:46:00,68.0,64.6,29.96,SSE,158,10.4,10.4,89,0.00,CLR,,0.00,0.0,WeatherDisplay:10.37,2018-05-23 05:46:00,
2018-05-23 00:51:00,67.8,64.4,29.96,SSE,158,9.4,9.4,89,0.00,CLR,,0.00,0.0,WeatherDisplay:10.37,2018-05-23 05:51:00,
2018-05-23 00:56:00,67.6,64.6,29.96,South,180,8.1,8.1,90,0.00,CLR,,0.00,0.0,WeatherDisplay:10.37,2018-05-23 05:56:00,
2018-05-23 01:01:00,67.3,64.3,29.96,South,180,9.2,9.2,90,0.00,CLR,,0.00,0.0,WeatherDisplay:10.37,2018-05-23 06:01:00,
2018-05-23 01:06:00,67.1,64.4,29.96,South,180,9.2,9.2,91,0.00,CLR,,0.00,0.0,WeatherDisplay:10.37,2018-05-23 06:06:00,
2018-05-23 01:11:00,67.1,64.4,29.96,South,180,10.4,10.4,91,0.00,CLR,,0.00,0.0,WeatherDisplay:10.37,2018-05-23 06:11:00,
2018-05-23 01:16:00,66.9,64.2,29.96,South,180,10.4,10.4,91,0.00,CLR,,0.00,0.0,WeatherDisplay:10.37,2018-05-23 06:16:00,
2018-05-23 01:21:00,66.7,64.0,29.96,South,180,9.4,9.4,91,0.00,CLR,,0.00,0.0,WeatherDisplay:10.37,2018-05-23 06:21:00,
2018-05-23 01:26:00,66.7,64.0,29.96,South,180,8.3,8.3,91,0.00,CLR,,0.00,0.0,WeatherDisplay:10.37,2018-05-23 06:26:00,
2018-05-23 01:31:00,66.6,64.2,29.96,SSE,158,8.1,8.1,92,0.00,CLR,,0.00,0.0,WeatherDisplay:10.37,2018-05-23 06:31:00,
2018-05-23 01:36:00,66.4,64.0,29.96,South,180,5.8,6.0,92,0.00,CLR,,0.00,0.0,WeatherDisplay:10.37,2018-05-23 06:36:00,
2018-05-23 01:37:00,66.4,64.0,29.96,South,180,6.3,6.3,92,0.00,CLR,,0.00,0.0,WeatherDisplay:10.37,2018-05-23 06:37:00,
2018-05-23 01:42:00,66.4,64.0,29.96,SSE,158,6.9,6.9,92,0.00,CLR,,0.00,0.0,WeatherDisplay:10.37,2018-05-23 06:42:00,
2018-05-23 01:47:00,66.4,64.0,29.96,South,180,6.9,6.9,92,0.00,CLR,,0.00,0.0,WeatherDisplay:10.37,2018-05-23 06:47:00,
2018-05-23 01:52:00,66.4,64.0,29.96,SSE,158,6.9,6.9,92,0.00,CLR,,0.00,0.0,WeatherDisplay:10.37,2018-05-23 06:52:00,
2018-05-23 01:57:00,66.2,63.8,29.96,SSE,158,8.1,8.1,92,0.00,CLR,,0.00,0.0,WeatherDisplay:10.37,2018-05-23 06:57:00,
2018-05-23 02:02:00,66.2,64.1,29.96,South,180,6.9,6.9,93,0.00,CLR,,0.00,0.0,WeatherDisplay:10.37,2018-05-23 07:02:00,
2018-05-23 02:07:00,66.0,63.9,29.96,SSE,158,7.3,7.3,93,0.00,CLR,,0.00,0.0,WeatherDisplay:10.37,2018-05-23 07:07:00,
2018-05-23 02:12:00,66.0,63.9,29.96,South,180,6.9,6.9,93,0.00,CLR,,0.00,0.0,WeatherDisplay:10.37,2018-05-23 07:12:00,
2018-05-23 02:17:00,66.0,63.9,29.96,South,180,5.8,5.8,93,0.00,CLR,,0.00,0.0,WeatherDisplay:10.37,2018-05-23 07:17:00,
2018-05-23 02:22:00,65.7,63.6,29.96,SSE,158,3.5,3.5,93,0.00,CLR,,0.00,0.0,WeatherDisplay:10.37,2018-05-23 07:22:00,
2018-05-23 02:27:00,65.5,63.7,28.72,SSE,157,4.2,-999.0,94,-99.99,,,0.00,,,2018-05-23 07:27:00,
2018-05-23 02:32:00,65.5,63.7,29.96,South,180,4.6,4.6,94,0.00,CLR,,0.00,0.0,WeatherDisplay:10.37,2018-05-23 07:32:00,
2018-05-23 02:37:00,65.5,63.7,29.96,SSE,158,4.6,4.6,94,0.00,CLR,,0.00,0.0,WeatherDisplay:10.37,2018-05-23 07:37:00,
2018-05-23 02:42:00,65.3,63.5,29.96,South,180,4.6,4.6,94,0.00,CLR,,0.00,0.0,WeatherDisplay:10.37,2018-05-23 07:42:00,
2018-05-23 02:47:00,65.3,63.5,29.96,SSE,158,3.5,3.5,94,0.00,CLR,,0.00,0.0,WeatherDisplay:10.37,2018-05-23 07:47:00,